No particular awareness of the weather is required.    There are no Weather-warnings


Meteo18 Weather Cam more information Meteo18 Weather Cam


Thunder radar more information blitzortung!


Rain radar more information rain snow radar


Visit our other weather sites:

Template documentation
and downloads

And another site



Weather Underground History page Text

Daily Summary for November 3, 2017 Units:  Both    English   Metric
« Previous Day
Next Day »
Daily Weekly Monthly Yearly Custom
  High: Low: Average:
Temperature: TemperatureC °F /  -17.8 °C 5.5 °F /  -14.7 °C 12.1 °F /  -11.1 °C
Dew Point: DewpointC °F /  -17.8 °C 4.9 °F /  -15.1 °C 9.7 °F /  -12.4 °C
Humidity: Humidity % 65 % 85 %
Wind Speed: WindSpeedKMH mph /  0 km/h - 1.7 mph /  2.7 km/h
Wind Gust: WindSpeedGustKMH mph /  0 km/h - -
Wind:- - ESE
Pressure: PressurehPa in /  0 hPa 1012.1 in /  34269.7 hPa -
Precipitation: 0.0 in /  0 mm    
Historical Graphs
 
 
Tabular Data for November 3, 2017
Time Temperature Dew Point Pressure Wind Wind Speed Wind Gust Humidity Rainfall Rate (Hourly)
TemperatureC °F /  -17.8 °C DewpointC °F /  -17.8 °C PressurehPa in /  0 hPa Calm     Humidity % HourlyPrecipMM in /  0 mm
00:02 9.7 °F /  -12.4 °C 9.1 °F /  -12.7 °C 1018.5 in /  34486.4 hPa Calm   1.6 mph /  2.6 km/h 96 % 0.0 in /  0 mm
00:07 9.7 °F /  -12.4 °C 9.1 °F /  -12.7 °C 1018.5 in /  34486.4 hPa NNE 3.2 mph /  5.1 km/h 3.2 mph /  5.1 km/h 96 % 0.0 in /  0 mm
00:12 9.4 °F /  -12.6 °C 8.6 °F /  -13 °C 1018.5 in /  34486.4 hPa North 3.2 mph /  5.1 km/h 3.2 mph /  5.1 km/h 95 % 0.0 in /  0 mm
00:17 9.5 °F /  -12.5 °C 8.9 °F /  -12.8 °C 1018.5 in /  34486.4 hPa North 3.2 mph /  5.1 km/h 4.8 mph /  7.7 km/h 96 % 0.0 in /  0 mm
00:22 9.4 °F /  -12.6 °C 8.8 °F /  -12.9 °C 1018.5 in /  34486.4 hPa North 1.6 mph /  2.6 km/h 4.8 mph /  7.7 km/h 96 % 0.0 in /  0 mm
00:27 9.5 °F /  -12.5 °C 8.9 °F /  -12.8 °C 1018.5 in /  34486.4 hPa Calm   4.8 mph /  7.7 km/h 96 % 0.0 in /  0 mm
00:32 9.5 °F /  -12.5 °C 8.9 °F /  -12.8 °C 1018.5 in /  34486.4 hPa Calm   3.2 mph /  5.1 km/h 96 % 0.0 in /  0 mm
00:37 9.3 °F /  -12.6 °C 8.7 °F /  -12.9 °C 1018.5 in /  34486.4 hPa Calm   3.2 mph /  5.1 km/h 96 % 0.0 in /  0 mm
00:42 9.3 °F /  -12.6 °C 8.7 °F /  -12.9 °C 1018.5 in /  34486.4 hPa NNW 1.6 mph /  2.6 km/h 1.6 mph /  2.6 km/h 96 % 0.0 in /  0 mm
00:47 9.4 °F /  -12.6 °C 8.8 °F /  -12.9 °C 1018.5 in /  34486.4 hPa NNW 1.6 mph /  2.6 km/h 3.2 mph /  5.1 km/h 96 % 0.0 in /  0 mm
00:52 9.5 °F /  -12.5 °C 8.9 °F /  -12.8 °C 1018.5 in /  34486.4 hPa Calm   3.2 mph /  5.1 km/h 96 % 0.0 in /  0 mm
00:57 9.3 °F /  -12.6 °C 8.7 °F /  -12.9 °C 1018.5 in /  34486.4 hPa NNW 1.6 mph /  2.6 km/h 3.2 mph /  5.1 km/h 96 % 0.0 in /  0 mm
01:02 9.3 °F /  -12.6 °C 8.7 °F /  -12.9 °C 1018.5 in /  34486.4 hPa NNW 1.6 mph /  2.6 km/h 3.2 mph /  5.1 km/h 96 % 0.0 in /  0 mm
01:07 9.5 °F /  -12.5 °C 9.0 °F /  -12.8 °C 1018.5 in /  34486.4 hPa NNW 1.6 mph /  2.6 km/h 3.2 mph /  5.1 km/h 97 % 0.0 in /  0 mm
01:12 9.3 °F /  -12.6 °C 8.7 °F /  -12.9 °C 1018.5 in /  34486.4 hPa North 1.6 mph /  2.6 km/h 3.2 mph /  5.1 km/h 96 % 0.0 in /  0 mm
01:17 9.2 °F /  -12.7 °C 8.6 °F /  -13 °C 1018.5 in /  34486.4 hPa NNW 1.6 mph /  2.6 km/h 3.2 mph /  5.1 km/h 96 % 0.0 in /  0 mm
01:22 9.4 °F /  -12.6 °C 8.9 °F /  -12.8 °C 1018.2 in /  34476.3 hPa NNW 3.2 mph /  5.1 km/h 3.2 mph /  5.1 km/h 97 % 0.0 in /  0 mm
01:27 9.5 °F /  -12.5 °C 9.0 °F /  -12.8 °C 1018.2 in /  34476.3 hPa Calm   3.2 mph /  5.1 km/h 97 % 0.0 in /  0 mm
01:37 9.3 °F /  -12.6 °C 8.7 °F /  -12.9 °C 1018.2 in /  34476.3 hPa Calm   3.2 mph /  5.1 km/h 96 % 0.0 in /  0 mm
01:42 9.2 °F /  -12.7 °C 8.6 °F /  -13 °C 1018.2 in /  34476.3 hPa Calm   1.6 mph /  2.6 km/h 96 % 0.0 in /  0 mm
01:47 8.9 °F /  -12.8 °C 8.3 °F /  -13.2 °C 1018.2 in /  34476.3 hPa Calm   1.6 mph /  2.6 km/h 96 % 0.0 in /  0 mm
01:57 8.5 °F /  -13.1 °C 7.9 °F /  -13.4 °C 1018.2 in /  34476.3 hPa WNW 1.6 mph /  2.6 km/h 1.6 mph /  2.6 km/h 96 % 0.0 in /  0 mm
02:02 8.5 °F /  -13.1 °C 7.9 °F /  -13.4 °C 1018.2 in /  34476.3 hPa Calm   1.6 mph /  2.6 km/h 96 % 0.0 in /  0 mm
02:07 8.8 °F /  -12.9 °C 8.3 °F /  -13.2 °C 1017.8 in /  34462.7 hPa Calm   1.6 mph /  2.6 km/h 97 % 0.0 in /  0 mm
02:12 9.1 °F /  -12.7 °C 8.6 °F /  -13 °C 1018.2 in /  34476.3 hPa Calm   1.6 mph /  2.6 km/h 97 % 0.0 in /  0 mm
02:17 9.3 °F /  -12.6 °C 8.8 °F /  -12.9 °C 1018.2 in /  34476.3 hPa Calm   1.6 mph /  2.6 km/h 97 % 0.0 in /  0 mm
02:22 9.3 °F /  -12.6 °C 8.8 °F /  -12.9 °C 1017.8 in /  34462.7 hPa Calm   1.6 mph /  2.6 km/h 97 % 0.0 in /  0 mm
02:32 9.3 °F /  -12.6 °C 8.8 °F /  -12.9 °C 1017.8 in /  34462.7 hPa Calm   1.6 mph /  2.6 km/h 97 % 0.0 in /  0 mm
02:37 9.1 °F /  -12.7 °C 8.5 °F /  -13.1 °C 1018.2 in /  34476.3 hPa Calm   1.6 mph /  2.6 km/h 96 % 0.0 in /  0 mm
02:42 8.4 °F /  -13.1 °C 7.6 °F /  -13.6 °C 1017.8 in /  34462.7 hPa Calm   1.6 mph /  2.6 km/h 95 % 0.0 in /  0 mm
02:47 8.3 °F /  -13.2 °C 7.7 °F /  -13.5 °C 1017.8 in /  34462.7 hPa Calm     96 % 0.0 in /  0 mm
02:52 8.6 °F /  -13 °C 8.2 °F /  -13.2 °C 1017.8 in /  34462.7 hPa Calm     97 % 0.0 in /  0 mm
02:57 8.2 °F /  -13.2 °C 7.6 °F /  -13.6 °C 1017.8 in /  34462.7 hPa Calm   1.6 mph /  2.6 km/h 96 % 0.0 in /  0 mm
03:02 8.3 °F /  -13.2 °C 7.7 °F /  -13.5 °C 1017.8 in /  34462.7 hPa WNW 1.6 mph /  2.6 km/h 1.6 mph /  2.6 km/h 96 % 0.0 in /  0 mm
03:07 8.6 °F /  -13 °C 8.2 °F /  -13.2 °C 1017.8 in /  34462.7 hPa Calm   1.6 mph /  2.6 km/h 97 % 0.0 in /  0 mm
03:12 8.6 °F /  -13 °C 8.2 °F /  -13.2 °C 1017.8 in /  34462.7 hPa Calm   1.6 mph /  2.6 km/h 97 % 0.0 in /  0 mm
03:17 8.4 °F /  -13.1 °C 8.0 °F /  -13.3 °C 1017.8 in /  34462.7 hPa North 1.6 mph /  2.6 km/h 1.6 mph /  2.6 km/h 97 % 0.0 in /  0 mm
03:22 8.6 °F /  -13 °C 8.2 °F /  -13.2 °C 1017.8 in /  34462.7 hPa North 1.6 mph /  2.6 km/h 3.2 mph /  5.1 km/h 97 % 0.0 in /  0 mm
03:27 8.7 °F /  -12.9 °C 8.3 °F /  -13.2 °C 1017.8 in /  34462.7 hPa North 1.6 mph /  2.6 km/h 3.2 mph /  5.1 km/h 97 % 0.0 in /  0 mm
03:32 8.6 °F /  -13 °C 8.2 °F /  -13.2 °C 1017.8 in /  34462.7 hPa North 1.6 mph /  2.6 km/h 3.2 mph /  5.1 km/h 97 % 0.0 in /  0 mm
03:37 8.6 °F /  -13 °C 8.2 °F /  -13.2 °C 1017.8 in /  34462.7 hPa Calm   3.2 mph /  5.1 km/h 97 % 0.0 in /  0 mm
03:42 8.7 °F /  -12.9 °C 8.7 °F /  -12.9 °C 1017.8 in /  34462.7 hPa Calm   3.2 mph /  5.1 km/h 100 % 0.0 in /  0 mm
03:47 8.7 °F /  -12.9 °C 8.7 °F /  -12.9 °C 1017.5 in /  34452.6 hPa Calm   3.2 mph /  5.1 km/h 100 % 0.0 in /  0 mm
03:52 8.7 °F /  -12.9 °C 8.7 °F /  -12.9 °C 1017.8 in /  34462.7 hPa Calm   1.6 mph /  2.6 km/h 100 % 0.0 in /  0 mm
08:17 6.0 °F /  -14.4 °C 5.6 °F /  -14.7 °C 1016.8 in /  34428.8 hPa Calm   -1607.4 mph /  -2586.8 km/h 97 % 0 in /  0 mm
08:22 5.9 °F /  -14.5 °C 5.5 °F /  -14.7 °C 1016.8 in /  34428.8 hPa NNE 1.6 mph /  2.6 km/h 1.6 mph /  2.6 km/h 97 % 0.0 in /  0 mm
08:27 5.5 °F /  -14.7 °C 4.9 °F /  -15.1 °C 1016.8 in /  34428.8 hPa Calm   1.6 mph /  2.6 km/h 96 % 0.0 in /  0 mm
08:32 5.8 °F /  -14.6 °C 5.4 °F /  -14.8 °C 1016.8 in /  34428.8 hPa Calm   1.6 mph /  2.6 km/h 97 % 0.0 in /  0 mm
08:37 6.2 °F /  -14.3 °C 5.8 °F /  -14.6 °C 1016.8 in /  34428.8 hPa Calm   1.6 mph /  2.6 km/h 97 % 0.0 in /  0 mm
08:42 6.4 °F /  -14.2 °C 6.0 °F /  -14.4 °C 1016.8 in /  34428.8 hPa Calm     97 % 0.0 in /  0 mm
08:47 6.6 °F /  -14.1 °C 6.3 °F /  -14.3 °C 1017.2 in /  34442.4 hPa Calm     98 % 0.0 in /  0 mm
08:52 6.6 °F /  -14.1 °C 6.2 °F /  -14.3 °C 1017.2 in /  34442.4 hPa Calm     97 % 0.0 in /  0 mm
08:57 6.7 °F /  -14.1 °C 6.3 °F /  -14.3 °C 1017.2 in /  34442.4 hPa Calm   1.6 mph /  2.6 km/h 97 % 0.0 in /  0 mm
09:02 6.9 °F /  -13.9 °C 6.5 °F /  -14.2 °C 1017.2 in /  34442.4 hPa Calm   1.6 mph /  2.6 km/h 97 % 0.0 in /  0 mm
09:07 7.0 °F /  -13.9 °C 6.6 °F /  -14.1 °C 1016.8 in /  34428.8 hPa Calm   1.6 mph /  2.6 km/h 97 % 0.0 in /  0 mm
09:12 7.2 °F /  -13.8 °C 6.8 °F /  -14 °C 1016.8 in /  34428.8 hPa Calm   1.6 mph /  2.6 km/h 97 % 0.0 in /  0 mm
09:17 7.3 °F /  -13.7 °C 6.9 °F /  -13.9 °C 1016.8 in /  34428.8 hPa Calm   1.6 mph /  2.6 km/h 97 % 0.0 in /  0 mm
09:22 7.4 °F /  -13.7 °C 7.0 °F /  -13.9 °C 1016.8 in /  34428.8 hPa Calm     97 % 0.0 in /  0 mm
09:27 7.4 °F /  -13.7 °C 7.0 °F /  -13.9 °C 1016.5 in /  34418.7 hPa Calm     97 % 0.0 in /  0 mm
09:37 7.6 °F /  -13.6 °C 7.2 °F /  -13.8 °C 1016.5 in /  34418.7 hPa Calm     97 % 0.0 in /  0 mm
09:42 8.0 °F /  -13.3 °C 7.6 °F /  -13.6 °C 1016.8 in /  34428.8 hPa Calm     97 % 0.0 in /  0 mm
09:47 8.2 °F /  -13.2 °C 7.9 °F /  -13.4 °C 1016.8 in /  34428.8 hPa East 1.6 mph /  2.6 km/h   98 % 0.0 in /  0 mm
09:52 8.3 °F /  -13.2 °C 8.0 °F /  -13.3 °C 1016.8 in /  34428.8 hPa ENE 3.2 mph /  5.1 km/h 3.2 mph /  5.1 km/h 98 % 0.0 in /  0 mm
10:02 8.7 °F /  -12.9 °C 8.3 °F /  -13.2 °C 1016.5 in /  34418.7 hPa ENE 1.6 mph /  2.6 km/h 4.8 mph /  7.7 km/h 97 % 0.0 in /  0 mm
10:07 9.1 °F /  -12.7 °C 8.8 °F /  -12.9 °C 1016.5 in /  34418.7 hPa East 3.2 mph /  5.1 km/h 4.8 mph /  7.7 km/h 98 % 0.0 in /  0 mm
10:12 9.2 °F /  -12.7 °C 8.9 °F /  -12.8 °C 1016.5 in /  34418.7 hPa ENE 1.6 mph /  2.6 km/h 4.8 mph /  7.7 km/h 98 % 0.0 in /  0 mm
10:17 9.4 °F /  -12.6 °C 9.1 °F /  -12.7 °C 1016.5 in /  34418.7 hPa ENE 1.6 mph /  2.6 km/h 6.4 mph /  10.3 km/h 98 % 0.0 in /  0 mm
10:22 9.6 °F /  -12.4 °C 9.3 °F /  -12.6 °C 1016.5 in /  34418.7 hPa Calm   6.4 mph /  10.3 km/h 98 % 0.0 in /  0 mm
10:27 9.7 °F /  -12.4 °C 9.4 °F /  -12.6 °C 1016.5 in /  34418.7 hPa Calm   6.4 mph /  10.3 km/h 98 % 0.0 in /  0 mm
10:32 9.7 °F /  -12.4 °C 9.2 °F /  -12.7 °C 1016.5 in /  34418.7 hPa Calm   3.2 mph /  5.1 km/h 97 % 0.0 in /  0 mm
10:37 9.9 °F /  -12.3 °C 9.4 °F /  -12.6 °C 1016.5 in /  34418.7 hPa Calm   3.2 mph /  5.1 km/h 97 % 0.0 in /  0 mm
10:42 10.2 °F /  -12.1 °C 9.7 °F /  -12.4 °C 1016.5 in /  34418.7 hPa Calm   3.2 mph /  5.1 km/h 97 % 0.0 in /  0 mm
10:47 10.4 °F /  -12 °C 10.1 °F /  -12.2 °C 1016.5 in /  34418.7 hPa Calm   3.2 mph /  5.1 km/h 98 % 0.0 in /  0 mm
10:52 10.7 °F /  -11.8 °C 10.2 °F /  -12.1 °C 1016.5 in /  34418.7 hPa Calm   1.6 mph /  2.6 km/h 97 % 0.0 in /  0 mm
10:57 10.8 °F /  -11.8 °C 10.3 °F /  -12.1 °C 1016.5 in /  34418.7 hPa Calm     97 % 0.0 in /  0 mm
11:02 10.9 °F /  -11.7 °C 10.4 °F /  -12 °C 1016.1 in /  34405.1 hPa Calm     97 % 0.0 in /  0 mm
11:07 11.1 °F /  -11.6 °C 10.6 °F /  -11.9 °C 1016.1 in /  34405.1 hPa NE 3.2 mph /  5.1 km/h   97 % 0.0 in /  0 mm
11:12 11.3 °F /  -11.5 °C 10.8 °F /  -11.8 °C 1016.1 in /  34405.1 hPa East 1.6 mph /  2.6 km/h 4.8 mph /  7.7 km/h 97 % 0.0 in /  0 mm
11:17 11.4 °F /  -11.4 °C 10.8 °F /  -11.8 °C 1016.1 in /  34405.1 hPa NE 3.2 mph /  5.1 km/h 6.4 mph /  10.3 km/h 96 % 0.0 in /  0 mm
11:22 11.8 °F /  -11.2 °C 11.3 °F /  -11.5 °C 1016.1 in /  34405.1 hPa Calm   6.4 mph /  10.3 km/h 97 % 0.0 in /  0 mm
11:27 12.0 °F /  -11.1 °C 11.4 °F /  -11.4 °C 1016.1 in /  34405.1 hPa Calm   6.4 mph /  10.3 km/h 96 % 0.0 in /  0 mm
11:32 12.3 °F /  -10.9 °C 11.7 °F /  -11.3 °C 1016.1 in /  34405.1 hPa Calm   4.8 mph /  7.7 km/h 96 % 0.0 in /  0 mm
11:37 12.4 °F /  -10.9 °C 11.5 °F /  -11.4 °C 1015.8 in /  34395 hPa ESE 1.6 mph /  2.6 km/h 4.8 mph /  7.7 km/h 94 % 0.0 in /  0 mm
11:42 12.7 °F /  -10.7 °C 11.8 °F /  -11.2 °C 1015.8 in /  34395 hPa NE 4.8 mph /  7.7 km/h 4.8 mph /  7.7 km/h 94 % 0.0 in /  0 mm
11:47 12.9 °F /  -10.6 °C 11.5 °F /  -11.4 °C 1015.8 in /  34395 hPa NNE 1.6 mph /  2.6 km/h 6.4 mph /  10.3 km/h 91 % 0.0 in /  0 mm
11:52 13.2 °F /  -10.4 °C 11.6 °F /  -11.3 °C 1015.8 in /  34395 hPa NE 3.2 mph /  5.1 km/h 6.4 mph /  10.3 km/h 90 % 0.0 in /  0 mm
11:57 13.3 °F /  -10.4 °C 11.4 °F /  -11.4 °C 1015.8 in /  34395 hPa ENE 3.2 mph /  5.1 km/h 6.4 mph /  10.3 km/h 88 % 0.0 in /  0 mm
12:07 13.7 °F /  -10.2 °C 11.4 °F /  -11.4 °C 1015.8 in /  34395 hPa NE 4.8 mph /  7.7 km/h 6.4 mph /  10.3 km/h 86 % 0.0 in /  0 mm
12:12 13.9 °F /  -10.1 °C 11.4 °F /  -11.4 °C 1015.8 in /  34395 hPa NNW 3.2 mph /  5.1 km/h 8.0 mph /  12.9 km/h 85 % 0.0 in /  0 mm
12:17 14.2 °F /  -9.9 °C 11.5 °F /  -11.4 °C 1015.8 in /  34395 hPa ENE 4.8 mph /  7.7 km/h 8.0 mph /  12.9 km/h 84 % 0.0 in /  0 mm
12:22 14.4 °F /  -9.8 °C 11.5 °F /  -11.4 °C 1015.5 in /  34384.8 hPa NE 4.8 mph /  7.7 km/h 8.0 mph /  12.9 km/h 83 % 0.0 in /  0 mm
12:27 14.6 °F /  -9.7 °C 11.4 °F /  -11.4 °C 1015.5 in /  34384.8 hPa NE 1.6 mph /  2.6 km/h 8.0 mph /  12.9 km/h 81 % 0.0 in /  0 mm
12:32 14.8 °F /  -9.6 °C 11.2 °F /  -11.6 °C 1015.5 in /  34384.8 hPa ESE 3.2 mph /  5.1 km/h 8.0 mph /  12.9 km/h 79 % 0.0 in /  0 mm
12:37 15.1 °F /  -9.4 °C 11.3 °F /  -11.5 °C 1015.5 in /  34384.8 hPa East 6.4 mph /  10.3 km/h 6.4 mph /  10.3 km/h 78 % 0.0 in /  0 mm
12:42 15.4 °F /  -9.2 °C 11.2 °F /  -11.6 °C 1015.5 in /  34384.8 hPa East 4.8 mph /  7.7 km/h 8.0 mph /  12.9 km/h 76 % 0.0 in /  0 mm
12:47 15.6 °F /  -9.1 °C 10.8 °F /  -11.8 °C 1015.5 in /  34384.8 hPa ENE 3.2 mph /  5.1 km/h 9.7 mph /  15.6 km/h 73 % 0.0 in /  0 mm
12:52 15.6 °F /  -9.1 °C 10.8 °F /  -11.8 °C 1015.1 in /  34371.3 hPa ESE 3.2 mph /  5.1 km/h 9.7 mph /  15.6 km/h 73 % 0.0 in /  0 mm
12:57 15.8 °F /  -9 °C 11.0 °F /  -11.7 °C 1015.1 in /  34371.3 hPa Calm   9.7 mph /  15.6 km/h 73 % 0.0 in /  0 mm
13:02 15.9 °F /  -8.9 °C 10.9 °F /  -11.7 °C 1015.1 in /  34371.3 hPa Calm   9.7 mph /  15.6 km/h 72 % 0.0 in /  0 mm
13:07 16.3 °F /  -8.7 °C 11.0 °F /  -11.7 °C 1015.1 in /  34371.3 hPa Calm   9.7 mph /  15.6 km/h 71 % 0.0 in /  0 mm
13:12 16.4 °F /  -8.7 °C 11.1 °F /  -11.6 °C 1015.1 in /  34371.3 hPa Calm   8.0 mph /  12.9 km/h 71 % 0.0 in /  0 mm
13:17 16.6 °F /  -8.6 °C 10.9 °F /  -11.7 °C 1014.8 in /  34361.1 hPa Calm   8.0 mph /  12.9 km/h 69 % 0.0 in /  0 mm
13:22 16.6 °F /  -8.6 °C 10.9 °F /  -11.7 °C 1014.8 in /  34361.1 hPa East 1.6 mph /  2.6 km/h 8.0 mph /  12.9 km/h 69 % 0.0 in /  0 mm
13:27 16.6 °F /  -8.6 °C 10.9 °F /  -11.7 °C 1014.8 in /  34361.1 hPa SE 4.8 mph /  7.7 km/h 6.4 mph /  10.3 km/h 69 % 0.0 in /  0 mm
13:32 16.7 °F /  -8.5 °C 11.0 °F /  -11.7 °C 1014.8 in /  34361.1 hPa ESE 6.4 mph /  10.3 km/h 8.0 mph /  12.9 km/h 69 % 0.0 in /  0 mm
13:37 16.8 °F /  -8.4 °C 11.1 °F /  -11.6 °C 1014.8 in /  34361.1 hPa East 3.2 mph /  5.1 km/h 9.7 mph /  15.6 km/h 69 % 0.0 in /  0 mm
13:42 16.8 °F /  -8.4 °C 10.9 °F /  -11.7 °C 1014.4 in /  34347.6 hPa ENE 9.7 mph /  15.6 km/h 9.7 mph /  15.6 km/h 68 % 0.0 in /  0 mm
13:47 16.9 °F /  -8.4 °C 11.0 °F /  -11.7 °C 1014.4 in /  34347.6 hPa NE 4.8 mph /  7.7 km/h 12.9 mph /  20.8 km/h 68 % 0.0 in /  0 mm
13:52 17.0 °F /  -8.3 °C 10.8 °F /  -11.8 °C 1014.4 in /  34347.6 hPa ENE 3.2 mph /  5.1 km/h 12.9 mph /  20.8 km/h 67 % 0.0 in /  0 mm
14:02 17.1 °F /  -8.3 °C 10.9 °F /  -11.7 °C 1014.4 in /  34347.6 hPa ENE 6.4 mph /  10.3 km/h 11.3 mph /  18.2 km/h 67 % 0.0 in /  0 mm
14:07 17.3 °F /  -8.2 °C 10.9 °F /  -11.7 °C 1014.4 in /  34347.6 hPa ENE 4.8 mph /  7.7 km/h 9.7 mph /  15.6 km/h 66 % 0.0 in /  0 mm
14:12 17.4 °F /  -8.1 °C 11.0 °F /  -11.7 °C 1014.1 in /  34337.4 hPa Calm   9.7 mph /  15.6 km/h 66 % 0.0 in /  0 mm
14:17 17.4 °F /  -8.1 °C 11.0 °F /  -11.7 °C 1014.1 in /  34337.4 hPa East 6.4 mph /  10.3 km/h 9.7 mph /  15.6 km/h 66 % 0.0 in /  0 mm
14:22 17.6 °F /  -8 °C 11.2 °F /  -11.6 °C 1014.1 in /  34337.4 hPa East 6.4 mph /  10.3 km/h 9.7 mph /  15.6 km/h 66 % 0.0 in /  0 mm
14:27 17.5 °F /  -8.1 °C 11.1 °F /  -11.6 °C 1014.1 in /  34337.4 hPa ENE 4.8 mph /  7.7 km/h 9.7 mph /  15.6 km/h 66 % 0.0 in /  0 mm
14:32 17.6 °F /  -8 °C 11.2 °F /  -11.6 °C 1014.1 in /  34337.4 hPa East 6.4 mph /  10.3 km/h 9.7 mph /  15.6 km/h 66 % 0.0 in /  0 mm
14:37 17.6 °F /  -8 °C 10.9 °F /  -11.7 °C 1014.1 in /  34337.4 hPa ENE 3.2 mph /  5.1 km/h 9.7 mph /  15.6 km/h 65 % 0.0 in /  0 mm
14:42 17.7 °F /  -7.9 °C 11.0 °F /  -11.7 °C 1014.1 in /  34337.4 hPa Calm   9.7 mph /  15.6 km/h 65 % 0.0 in /  0 mm
14:47 17.6 °F /  -8 °C 10.9 °F /  -11.7 °C 1013.8 in /  34327.3 hPa NNE 3.2 mph /  5.1 km/h 9.7 mph /  15.6 km/h 65 % 0.0 in /  0 mm
14:52 17.6 °F /  -8 °C 10.9 °F /  -11.7 °C 1013.8 in /  34327.3 hPa East 4.8 mph /  7.7 km/h 9.7 mph /  15.6 km/h 65 % 0.0 in /  0 mm
14:57 17.4 °F /  -8.1 °C 10.8 °F /  -11.8 °C 1013.8 in /  34327.3 hPa ENE 3.2 mph /  5.1 km/h 9.7 mph /  15.6 km/h 65 % 0.0 in /  0 mm
15:02 17.3 °F /  -8.2 °C 10.7 °F /  -11.8 °C 1013.8 in /  34327.3 hPa Calm   9.7 mph /  15.6 km/h 65 % 0.0 in /  0 mm
15:07 17.2 °F /  -8.2 °C 11.0 °F /  -11.7 °C 1013.8 in /  34327.3 hPa NE 3.2 mph /  5.1 km/h 9.7 mph /  15.6 km/h 67 % 0.0 in /  0 mm
15:12 17.0 °F /  -8.3 °C 10.8 °F /  -11.8 °C 1013.8 in /  34327.3 hPa East 1.6 mph /  2.6 km/h 6.4 mph /  10.3 km/h 67 % 0.0 in /  0 mm
15:17 17.0 °F /  -8.3 °C 10.8 °F /  -11.8 °C 1013.8 in /  34327.3 hPa ENE 1.6 mph /  2.6 km/h 4.8 mph /  7.7 km/h 67 % 0.0 in /  0 mm
15:22 17.0 °F /  -8.3 °C 10.8 °F /  -11.8 °C 1013.8 in /  34327.3 hPa ENE 1.6 mph /  2.6 km/h 4.8 mph /  7.7 km/h 67 % 0.0 in /  0 mm
15:27 16.9 °F /  -8.4 °C 10.7 °F /  -11.8 °C 1013.8 in /  34327.3 hPa East 1.6 mph /  2.6 km/h 4.8 mph /  7.7 km/h 67 % 0.0 in /  0 mm
15:32 16.9 °F /  -8.4 °C 10.7 °F /  -11.8 °C 1013.8 in /  34327.3 hPa ENE 1.6 mph /  2.6 km/h 4.8 mph /  7.7 km/h 67 % 0.0 in /  0 mm
15:37 16.9 °F /  -8.4 °C 11.0 °F /  -11.7 °C 1013.8 in /  34327.3 hPa Calm   4.8 mph /  7.7 km/h 68 % 0.0 in /  0 mm
15:42 16.9 °F /  -8.4 °C 11.0 °F /  -11.7 °C 1013.8 in /  34327.3 hPa ENE 1.6 mph /  2.6 km/h 3.2 mph /  5.1 km/h 68 % 0.0 in /  0 mm
15:47 16.8 °F /  -8.4 °C 11.1 °F /  -11.6 °C 1013.8 in /  34327.3 hPa Calm   3.2 mph /  5.1 km/h 69 % 0.0 in /  0 mm
15:52 16.8 °F /  -8.4 °C 11.3 °F /  -11.5 °C 1013.4 in /  34313.7 hPa NE 1.6 mph /  2.6 km/h 3.2 mph /  5.1 km/h 70 % 0.0 in /  0 mm
15:57 16.7 °F /  -8.5 °C 11.4 °F /  -11.4 °C 1013.4 in /  34313.7 hPa NE 6.4 mph /  10.3 km/h 6.4 mph /  10.3 km/h 71 % 0.0 in /  0 mm
16:02 16.4 °F /  -8.7 °C 11.3 °F /  -11.5 °C 1013.4 in /  34313.7 hPa NE 4.8 mph /  7.7 km/h 6.4 mph /  10.3 km/h 72 % 0.0 in /  0 mm
16:07 16.3 °F /  -8.7 °C 11.2 °F /  -11.6 °C 1013.4 in /  34313.7 hPa NE 1.6 mph /  2.6 km/h 6.4 mph /  10.3 km/h 72 % 0.0 in /  0 mm
16:12 16.2 °F /  -8.8 °C 11.4 °F /  -11.4 °C 1013.4 in /  34313.7 hPa NE 4.8 mph /  7.7 km/h 8.0 mph /  12.9 km/h 73 % 0.0 in /  0 mm
16:17 16.0 °F /  -8.9 °C 11.4 °F /  -11.4 °C 1013.4 in /  34313.7 hPa NE 4.8 mph /  7.7 km/h 8.0 mph /  12.9 km/h 74 % 0.0 in /  0 mm
16:22 15.9 °F /  -8.9 °C 11.3 °F /  -11.5 °C 1013.4 in /  34313.7 hPa NNE 6.4 mph /  10.3 km/h 8.0 mph /  12.9 km/h 74 % 0.0 in /  0 mm
16:27 15.8 °F /  -9 °C 11.4 °F /  -11.4 °C 1013.4 in /  34313.7 hPa NE 6.4 mph /  10.3 km/h 8.0 mph /  12.9 km/h 75 % 0.0 in /  0 mm
16:32 15.7 °F /  -9.1 °C 11.3 °F /  -11.5 °C 1013.4 in /  34313.7 hPa NE 4.8 mph /  7.7 km/h 9.7 mph /  15.6 km/h 75 % 0.0 in /  0 mm
16:37 15.6 °F /  -9.1 °C 11.2 °F /  -11.6 °C 1013.4 in /  34313.7 hPa NNE 4.8 mph /  7.7 km/h 9.7 mph /  15.6 km/h 75 % 0.0 in /  0 mm
16:42 15.4 °F /  -9.2 °C 11.2 °F /  -11.6 °C 1013.4 in /  34313.7 hPa NE 4.8 mph /  7.7 km/h 8.0 mph /  12.9 km/h 76 % 0.0 in /  0 mm
16:52 15.3 °F /  -9.3 °C 11.3 °F /  -11.5 °C 1013.4 in /  34313.7 hPa NE 3.2 mph /  5.1 km/h 8.0 mph /  12.9 km/h 77 % 0.0 in /  0 mm
16:57 15.1 °F /  -9.4 °C 11.1 °F /  -11.6 °C 1013.4 in /  34313.7 hPa NNE 4.8 mph /  7.7 km/h 6.4 mph /  10.3 km/h 77 % 0.0 in /  0 mm
17:02 14.9 °F /  -9.5 °C 11.1 °F /  -11.6 °C 1013.4 in /  34313.7 hPa NE 6.4 mph /  10.3 km/h 9.7 mph /  15.6 km/h 78 % 0.0 in /  0 mm
17:12 14.8 °F /  -9.6 °C 11.0 °F /  -11.7 °C 1013.4 in /  34313.7 hPa NNE 3.2 mph /  5.1 km/h 9.7 mph /  15.6 km/h 78 % 0.0 in /  0 mm
17:17 14.8 °F /  -9.6 °C 11.0 °F /  -11.7 °C 1013.4 in /  34313.7 hPa NE 1.6 mph /  2.6 km/h 9.7 mph /  15.6 km/h 78 % 0.0 in /  0 mm
17:22 14.7 °F /  -9.6 °C 10.9 °F /  -11.7 °C 1013.4 in /  34313.7 hPa NE 4.8 mph /  7.7 km/h 9.7 mph /  15.6 km/h 78 % 0.0 in /  0 mm
17:27 14.7 °F /  -9.6 °C 10.9 °F /  -11.7 °C 1013.4 in /  34313.7 hPa NE 1.6 mph /  2.6 km/h 6.4 mph /  10.3 km/h 78 % 0.0 in /  0 mm
17:32 14.6 °F /  -9.7 °C 11.0 °F /  -11.7 °C 1013.4 in /  34313.7 hPa Calm   6.4 mph /  10.3 km/h 79 % 0.0 in /  0 mm
17:37 14.4 °F /  -9.8 °C 10.8 °F /  -11.8 °C 1013.4 in /  34313.7 hPa NNE 1.6 mph /  2.6 km/h 6.4 mph /  10.3 km/h 79 % 0.0 in /  0 mm
17:42 14.3 °F /  -9.8 °C 10.9 °F /  -11.7 °C 1013.4 in /  34313.7 hPa Calm   6.4 mph /  10.3 km/h 80 % 0.0 in /  0 mm
17:47 14.2 °F /  -9.9 °C 10.8 °F /  -11.8 °C 1013.4 in /  34313.7 hPa NE 3.2 mph /  5.1 km/h 4.8 mph /  7.7 km/h 80 % 0.0 in /  0 mm
17:52 14.1 °F /  -9.9 °C 10.9 °F /  -11.7 °C 1013.4 in /  34313.7 hPa NE 1.6 mph /  2.6 km/h 4.8 mph /  7.7 km/h 81 % 0.0 in /  0 mm
17:57 14.1 °F /  -9.9 °C 10.9 °F /  -11.7 °C 1013.4 in /  34313.7 hPa NNE 1.6 mph /  2.6 km/h 4.8 mph /  7.7 km/h 81 % 0.0 in /  0 mm
18:02 14.1 °F /  -9.9 °C 10.9 °F /  -11.7 °C 1013.4 in /  34313.7 hPa NE 1.6 mph /  2.6 km/h 4.8 mph /  7.7 km/h 81 % 0.0 in /  0 mm
18:07 14.0 °F /  -10 °C 10.8 °F /  -11.8 °C 1013.4 in /  34313.7 hPa Calm   4.8 mph /  7.7 km/h 81 % 0.0 in /  0 mm
18:12 13.9 °F /  -10.1 °C 10.7 °F /  -11.8 °C 1013.4 in /  34313.7 hPa Calm   4.8 mph /  7.7 km/h 81 % 0.0 in /  0 mm
18:22 13.7 °F /  -10.2 °C 10.7 °F /  -11.8 °C 1013.4 in /  34313.7 hPa NE 6.4 mph /  10.3 km/h 6.4 mph /  10.3 km/h 82 % 0.0 in /  0 mm
18:32 13.9 °F /  -10.1 °C 10.9 °F /  -11.7 °C 1013.1 in /  34303.6 hPa NNE 6.4 mph /  10.3 km/h 9.7 mph /  15.6 km/h 82 % 0.0 in /  0 mm
18:37 13.8 °F /  -10.1 °C 10.8 °F /  -11.8 °C 1013.1 in /  34303.6 hPa ENE 6.4 mph /  10.3 km/h 12.9 mph /  20.8 km/h 82 % 0.0 in /  0 mm
18:47 13.8 °F /  -10.1 °C 11.0 °F /  -11.7 °C 1013.1 in /  34303.6 hPa NE 1.6 mph /  2.6 km/h 11.3 mph /  18.2 km/h 83 % 0.0 in /  0 mm
18:52 13.8 °F /  -10.1 °C 11.0 °F /  -11.7 °C 1013.1 in /  34303.6 hPa NE 3.2 mph /  5.1 km/h 8.0 mph /  12.9 km/h 83 % 0.0 in /  0 mm
18:57 13.8 °F /  -10.1 °C 11.0 °F /  -11.7 °C 1013.1 in /  34303.6 hPa NE 3.2 mph /  5.1 km/h 8.0 mph /  12.9 km/h 83 % 0.0 in /  0 mm
19:02 13.8 °F /  -10.1 °C 11.0 °F /  -11.7 °C 1013.4 in /  34313.7 hPa NE 4.8 mph /  7.7 km/h 8.0 mph /  12.9 km/h 83 % 0.0 in /  0 mm
19:07 13.9 °F /  -10.1 °C 10.9 °F /  -11.7 °C 1013.4 in /  34313.7 hPa NE 3.2 mph /  5.1 km/h 8.0 mph /  12.9 km/h 82 % 0.0 in /  0 mm
19:12 13.9 °F /  -10.1 °C 10.9 °F /  -11.7 °C 1013.4 in /  34313.7 hPa NNE 3.2 mph /  5.1 km/h 9.7 mph /  15.6 km/h 82 % 0.0 in /  0 mm
19:17 13.8 °F /  -10.1 °C 10.8 °F /  -11.8 °C 1013.1 in /  34303.6 hPa NE 4.8 mph /  7.7 km/h 9.7 mph /  15.6 km/h 82 % 0.0 in /  0 mm
19:22 13.8 °F /  -10.1 °C 10.8 °F /  -11.8 °C 1013.1 in /  34303.6 hPa NNE 3.2 mph /  5.1 km/h 6.4 mph /  10.3 km/h 82 % 0.0 in /  0 mm
19:27 13.8 °F /  -10.1 °C 10.8 °F /  -11.8 °C 1013.1 in /  34303.6 hPa NE 1.6 mph /  2.6 km/h 6.4 mph /  10.3 km/h 82 % 0.0 in /  0 mm
19:32 13.8 °F /  -10.1 °C 10.8 °F /  -11.8 °C 1013.1 in /  34303.6 hPa NE 3.2 mph /  5.1 km/h 6.4 mph /  10.3 km/h 82 % 0.0 in /  0 mm
19:37 13.7 °F /  -10.2 °C 10.7 °F /  -11.8 °C 1013.1 in /  34303.6 hPa NNE 4.8 mph /  7.7 km/h 6.4 mph /  10.3 km/h 82 % 0.0 in /  0 mm
19:42 13.5 °F /  -10.3 °C 10.5 °F /  -11.9 °C 1013.1 in /  34303.6 hPa NE 1.6 mph /  2.6 km/h 4.8 mph /  7.7 km/h 82 % 0.0 in /  0 mm
19:47 13.4 °F /  -10.3 °C 10.6 °F /  -11.9 °C 1013.1 in /  34303.6 hPa NE 1.6 mph /  2.6 km/h 4.8 mph /  7.7 km/h 83 % 0.0 in /  0 mm
19:57 13.4 °F /  -10.3 °C 10.6 °F /  -11.9 °C 1013.1 in /  34303.6 hPa Calm   6.4 mph /  10.3 km/h 83 % 0.0 in /  0 mm
20:02 13.3 °F /  -10.4 °C 10.5 °F /  -11.9 °C 1013.1 in /  34303.6 hPa Calm   4.8 mph /  7.7 km/h 83 % 0.0 in /  0 mm
20:07 13.3 °F /  -10.4 °C 10.5 °F /  -11.9 °C 1012.8 in /  34293.4 hPa Calm   4.8 mph /  7.7 km/h 83 % 0.0 in /  0 mm
20:12 13.2 °F /  -10.4 °C 10.4 °F /  -12 °C 1013.1 in /  34303.6 hPa Calm   3.2 mph /  5.1 km/h 83 % 0.0 in /  0 mm
20:22 13.2 °F /  -10.4 °C 10.4 °F /  -12 °C 1013.1 in /  34303.6 hPa ENE 3.2 mph /  5.1 km/h 3.2 mph /  5.1 km/h 83 % 0.0 in /  0 mm
20:27 13.2 °F /  -10.4 °C 10.2 °F /  -12.1 °C 1012.8 in /  34293.4 hPa ENE 1.6 mph /  2.6 km/h 4.8 mph /  7.7 km/h 82 % 0.0 in /  0 mm
20:32 13.1 °F /  -10.5 °C 10.1 °F /  -12.2 °C 1012.8 in /  34293.4 hPa Calm   4.8 mph /  7.7 km/h 82 % 0.0 in /  0 mm
20:37 13.1 °F /  -10.5 °C 10.3 °F /  -12.1 °C 1012.8 in /  34293.4 hPa NE 1.6 mph /  2.6 km/h 4.8 mph /  7.7 km/h 83 % 0.0 in /  0 mm
20:42 12.9 °F /  -10.6 °C 10.1 °F /  -12.2 °C 1012.8 in /  34293.4 hPa Calm   4.8 mph /  7.7 km/h 83 % 0.0 in /  0 mm
20:52 12.7 °F /  -10.7 °C 9.9 °F /  -12.3 °C 1012.8 in /  34293.4 hPa Calm   4.8 mph /  7.7 km/h 83 % 0.0 in /  0 mm
20:57 12.6 °F /  -10.8 °C 10.0 °F /  -12.2 °C 1012.8 in /  34293.4 hPa Calm   3.2 mph /  5.1 km/h 84 % 0.0 in /  0 mm
21:02 12.4 °F /  -10.9 °C 9.8 °F /  -12.3 °C 1012.8 in /  34293.4 hPa NE 1.6 mph /  2.6 km/h 3.2 mph /  5.1 km/h 84 % 0.0 in /  0 mm
21:07 12.3 °F /  -10.9 °C 9.7 °F /  -12.4 °C 1012.8 in /  34293.4 hPa Calm   4.8 mph /  7.7 km/h 84 % 0.0 in /  0 mm
21:12 12.2 °F /  -11 °C 9.6 °F /  -12.4 °C 1012.8 in /  34293.4 hPa Calm   4.8 mph /  7.7 km/h 84 % 0.0 in /  0 mm
21:17 12.1 °F /  -11.1 °C 9.7 °F /  -12.4 °C 1012.8 in /  34293.4 hPa Calm   4.8 mph /  7.7 km/h 85 % 0.0 in /  0 mm
21:22 12.0 °F /  -11.1 °C 9.6 °F /  -12.4 °C 1012.8 in /  34293.4 hPa Calm     85 % 0.0 in /  0 mm
21:27 11.9 °F /  -11.2 °C 9.6 °F /  -12.4 °C 1012.8 in /  34293.4 hPa Calm     86 % 0.0 in /  0 mm
21:32 11.8 °F /  -11.2 °C 9.5 °F /  -12.5 °C 1012.8 in /  34293.4 hPa Calm     86 % 0.0 in /  0 mm
21:42 11.7 °F /  -11.3 °C 9.6 °F /  -12.4 °C 1012.8 in /  34293.4 hPa Calm     87 % 0.0 in /  0 mm
21:47 11.7 °F /  -11.3 °C 9.4 °F /  -12.6 °C 1012.8 in /  34293.4 hPa Calm     86 % 0.0 in /  0 mm
21:57 11.4 °F /  -11.4 °C 9.3 °F /  -12.6 °C 1012.8 in /  34293.4 hPa Calm     87 % 0.0 in /  0 mm
22:02 11.2 °F /  -11.6 °C 9.1 °F /  -12.7 °C 1012.8 in /  34293.4 hPa Calm     87 % 0.0 in /  0 mm
22:07 11.2 °F /  -11.6 °C 9.3 °F /  -12.6 °C 1012.8 in /  34293.4 hPa Calm     88 % 0.0 in /  0 mm
22:12 11.2 °F /  -11.6 °C 9.5 °F /  -12.5 °C 1012.8 in /  34293.4 hPa Calm     89 % 0.0 in /  0 mm
22:17 11.3 °F /  -11.5 °C 9.4 °F /  -12.6 °C 1012.8 in /  34293.4 hPa North 1.6 mph /  2.6 km/h 3.2 mph /  5.1 km/h 88 % 0.0 in /  0 mm
22:22 11.2 °F /  -11.6 °C 9.3 °F /  -12.6 °C 1012.8 in /  34293.4 hPa Calm   3.2 mph /  5.1 km/h 88 % 0.0 in /  0 mm
22:27 10.9 °F /  -11.7 °C 8.8 °F /  -12.9 °C 1012.8 in /  34293.4 hPa Calm   3.2 mph /  5.1 km/h 87 % 0.0 in /  0 mm
22:32 10.7 °F /  -11.8 °C 9.0 °F /  -12.8 °C 1012.8 in /  34293.4 hPa Calm   1.6 mph /  2.6 km/h 89 % 0.0 in /  0 mm
22:37 10.7 °F /  -11.8 °C 9.0 °F /  -12.8 °C 1012.8 in /  34293.4 hPa Calm   1.6 mph /  2.6 km/h 89 % 0.0 in /  0 mm
22:47 10.6 °F /  -11.9 °C 8.9 °F /  -12.8 °C 1012.8 in /  34293.4 hPa Calm   3.2 mph /  5.1 km/h 89 % 0.0 in /  0 mm
22:52 10.7 °F /  -11.8 °C 9.1 °F /  -12.7 °C 1012.8 in /  34293.4 hPa Calm   3.2 mph /  5.1 km/h 90 % 0.0 in /  0 mm
23:02 10.3 °F /  -12.1 °C 8.7 °F /  -12.9 °C 1012.8 in /  34293.4 hPa Calm   1.6 mph /  2.6 km/h 90 % 0.0 in /  0 mm
23:07 10.4 °F /  -12 °C 9.0 °F /  -12.8 °C 1012.8 in /  34293.4 hPa North 1.6 mph /  2.6 km/h 1.6 mph /  2.6 km/h 91 % 0.0 in /  0 mm
23:12 10.5 °F /  -11.9 °C 8.9 °F /  -12.8 °C 1012.4 in /  34279.9 hPa NNE 3.2 mph /  5.1 km/h 3.2 mph /  5.1 km/h 90 % 0.0 in /  0 mm
23:22 10.7 °F /  -11.8 °C 9.1 °F /  -12.7 °C 1012.4 in /  34279.9 hPa Calm   6.4 mph /  10.3 km/h 90 % 0.0 in /  0 mm
23:27 10.6 °F /  -11.9 °C 8.9 °F /  -12.8 °C 1012.4 in /  34279.9 hPa Calm   6.4 mph /  10.3 km/h 89 % 0.0 in /  0 mm
23:32 10.3 °F /  -12.1 °C 8.6 °F /  -13 °C 1012.1 in /  34269.7 hPa Calm   4.8 mph /  7.7 km/h 89 % 0.0 in /  0 mm
23:37 10.2 °F /  -12.1 °C 8.6 °F /  -13 °C 1012.4 in /  34279.9 hPa NW 1.6 mph /  2.6 km/h 3.2 mph /  5.1 km/h 90 % 0.0 in /  0 mm
23:42 10.2 °F /  -12.1 °C 8.8 °F /  -12.9 °C 1012.1 in /  34269.7 hPa Calm   1.6 mph /  2.6 km/h 91 % 0.0 in /  0 mm
23:47 10.4 °F /  -12 °C 9.0 °F /  -12.8 °C 1012.1 in /  34269.7 hPa NW 1.6 mph /  2.6 km/h 1.6 mph /  2.6 km/h 91 % 0.0 in /  0 mm
23:52 10.1 °F /  -12.2 °C 8.7 °F /  -12.9 °C 1012.1 in /  34269.7 hPa WNW 3.2 mph /  5.1 km/h 3.2 mph /  5.1 km/h 91 % 0.0 in /  0 mm
23:57 9.8 °F /  -12.3 °C 8.6 °F /  -13 °C 1012.1 in /  34269.7 hPa WNW 1.6 mph /  2.6 km/h 3.2 mph /  5.1 km/h 92 % 0.0 in /  0 mm
Meteo18
Compliments of Weather Underground - 4 mb

Script developed by  Jim McMurry - jmcmurry@mwt.net Adapted for the template by  Wim van der Kuil - Leuven-Template.eu

You find our weather info also at:

European Weather Network

Weather Underground

Equipment we use:

Weather-station
Davis Vue

Weather-program
Meteobridge

Weather-server
Raspberry PI 2 B+

Provider
1 and 1

Davis Vue

Meteobridge

Raspberry PI 2 B+

1 and 1